Mayo, MD (21106)

6:34 AM EDT on July 31, 2016 (GMT -0400)
Beverly Beach | | Change Station
Active Advisory: Areal Flood Warning

Elev 7 ft 38.88 °N, 76.51 °W | Updated 4 minutes ago

Partly Cloudy
Partly Cloudy
73.1 °F
Feels Like 73.1 °F
N
0.0
Wind Variable Wind from North
Gusts 0.0 mph

Today
High -- | Low -- °F
--% Chance of Precip.
Yesterday
High -- | Low -- °F
Precip. -- in
Pressure 29.96 in
Visibility 5.0 miles
Clouds Few 800 ft
Dew Point 72 °F
Humidity 97%
Rainfall 0.00 in
Snow Depth Not available.
6:06 AM 8:17 PM
Waning Crescent, 7% visible
SPECI KNAK 311020Z AUTO 34003KT 5SM BR FEW008 24/23 A2996 RMK AO2 T02440233 $
Pressure 29.96 in
Visibility 5.0 miles
Clouds Few 800 ft
Dew Point 72 °F
Humidity 97%
Rainfall 0.00 in
Snow Depth Not available.
6:06 AM 8:17 PM
Waning Crescent, 7% visible
SPECI KNAK 311020Z AUTO 34003KT 5SM BR FEW008 24/23 A2996 RMK AO2 T02440233 $

10-Day Weather Forecast

Almanac

Astronomy

Jul. 31, 2016 Rise Set
Actual Time
Civil Twilight
Nautical Twilight
Astronomical Twilight
Moon
Length of Visible Light
Length of Day
Tomorrow will be .
, % of the Moon is Illuminated

Today's Extremes

State Highs State Lows

Community

WunderPhotos

Upload Photos

1,928,783 photos uploaded!

WunderBlog® & News

Nearby

Air Quality

  Air Quality AQ Index Pollutant
Not available.

Snow Depth

Station Depth Elevation

Earthquake Activity

City Distance Mag. Time & Date
Minimum magnitude displayed is 2.5.

Coastal Water Temperatures

Place Temperature

Stations

Nearby Weather Stations

Station Location Temp. Windchill Dew Point Humidity Wind Precip. Elev Updated Type
                   

Watches & Warnings

Areal Flood Warning
Issued: 6:09 AM EDT Jul. 31, 2016 – National Weather Service

The National Weather Service in Sterling Virginia has extended the

* Flood Warning for...
northeastern Prince Georges County in central Maryland...
southeastern Howard County in central Maryland...
western Anne Arundel County in central Maryland...

* until 1115 am EDT

* at 606 am EDT... reporting gauges indicated the little Patuxent
River was still above flood stage and just cresting near the
Savage area at 18 feet... downstream of Columbia. This flooding
will continue through the morning hours and move downstream
towards Bowie.

* Some locations that will experience flooding include...
Columbia... Bowie... Severn... Crofton... Elkridge... Odenton... Fort
Meade... Savage-Guilford... Scaggsville... Jessup... Savage... Fulton...
Prince Georges stadium and Georgetown.

Precautionary/preparedness actions...

Turn around... don't drown when encountering flooded roads. Most flood
deaths occur in vehicles.

Stay away or be swept away. River banks and culverts can become
unstable and unsafe.


Lat... Lon 3881 7666 3881 7672 3899 7673 3906 7678
      3916 7690 3918 7673 3893 7663


Mjm